Time;durP1;ratioP1;P1;durP2;ratioP2;P2;SDS_P1;SDS_P2;PMS_P1;PMS_P2;Temp;Humidity;BMP_temperature;BMP_pressure;BME280_temperature;BME280_humidity;BME280_pressure;Samples;Min_cycle;Max_cycle;Signal;HPM_P1;HPM_P2
2022/10/30 00:01:14;;;;;;;42.10;21.87;;;;;;;14.59;70.91;100527.50;7733676;32;40013;-74
2022/10/30 00:05:30;;;;;;;43.35;21.45;;;;;;;14.71;70.52;100518.13;7723205;32;38160;-74
2022/10/30 00:09:46;;;;;;;47.58;23.25;;;;;;;14.85;70.17;100513.69;7711015;32;37242;-74
2022/10/30 00:14:03;;;;;;;45.25;22.90;;;;;;;14.27;72.16;100519.63;7710557;32;39398;-74
2022/10/30 00:18:19;;;;;;;45.28;21.98;;;;;;;14.42;71.46;100518.78;7711030;32;41368;-74
2022/10/30 00:22:36;;;;;;;51.10;23.62;;;;;;;14.69;70.22;100506.59;7709734;32;37729;-74
2022/10/30 00:26:52;;;;;;;40.12;21.08;;;;;;;14.55;70.91;100520.91;7709682;32;37395;-75
2022/10/30 00:31:09;;;;;;;39.55;20.52;;;;;;;14.33;70.79;100517.69;7713598;32;39321;-75
2022/10/30 00:35:25;;;;;;;40.75;22.00;;;;;;;14.68;69.46;100513.19;7737647;32;39923;-75
2022/10/30 00:39:41;;;;;;;41.03;21.33;;;;;;;14.35;70.65;100518.22;7737349;32;37794;-75
2022/10/30 00:43:57;;;;;;;44.90;22.67;;;;;;;14.63;69.97;100512.13;7737550;32;38042;-74
2022/10/30 00:48:13;;;;;;;46.90;22.55;;;;;;;14.50;70.24;100498.97;7737332;32;39276;-74
2022/10/30 00:52:33;;;;;;;41.97;20.90;;;;;;;14.45;70.56;100494.34;7735674;32;40850;-74
2022/10/30 00:56:50;;;;;;;42.25;21.90;;;;;;;14.24;70.48;100492.75;7717384;32;37896;-74
2022/10/30 01:01:11;;;;;;;41.88;21.95;;;;;;;14.49;70.23;100493.75;7710215;32;38000;-74
2022/10/30 01:05:29;;;;;;;40.80;21.08;;;;;;;14.55;69.76;100487.97;7710079;32;39148;-75
2022/10/30 01:09:46;;;;;;;44.58;21.23;;;;;;;14.59;69.61;100483.63;7708866;32;40237;-74
2022/10/30 01:14:06;;;;;;;42.58;22.50;;;;;;;14.51;69.99;100473.19;7709776;32;38055;-74
2022/10/30 01:18:54;;;;;;;40.83;20.77;;;;;;;14.49;70.42;100478.13;7709777;32;38087;-74
2022/10/30 01:23:36;;;;;;;36.92;20.02;;;;;;;14.57;70.34;100480.31;7694395;32;40186;-74
2022/10/30 01:28:12;;;;;;;39.67;21.02;;;;;;;14.79;69.47;100481.84;7712115;32;40805;-75
2022/10/30 01:32:40;;;;;;;42.58;21.00;;;;;;;14.33;70.90;100479.28;7700626;32;38314;-74
2022/10/30 01:37:20;;;;;;;39.80;20.80;;;;;;;14.61;70.11;100483.34;7699258;32;36761;-74
2022/10/30 01:41:36;;;;;;;36.75;20.00;;;;;;;14.33;70.92;100490.25;7701315;32;39414;-74
2022/10/30 01:46:07;;;;;;;35.15;19.98;;;;;;;14.64;69.89;100480.00;7712651;32;40789;-74
2022/10/30 01:50:26;;;;;;;38.97;20.67;;;;;;;14.74;69.50;100481.88;7712783;32;38841;-74
2022/10/30 01:54:51;;;;;;;40.88;21.48;;;;;;;14.75;69.44;100478.84;7733306;32;37254;-74
2022/10/30 01:59:13;;;;;;;39.97;20.40;;;;;;;14.55;70.14;100466.03;7739589;32;40012;-73
2022/10/30 02:03:30;;;;;;;42.30;21.77;;;;;;;14.73;69.42;100469.25;7739454;32;39964;-74
2022/10/30 02:07:46;;;;;;;36.80;20.98;;;;;;;14.41;70.50;100462.25;7725486;32;37982;-75
2022/10/30 02:12:02;;;;;;;48.85;22.42;;;;;;;14.31;70.71;100460.37;7725608;32;37637;-74
2022/10/30 02:16:19;;;;;;;47.90;20.65;;;;;;;14.05;71.86;100460.44;7725572;32;40076;-74
2022/10/30 02:20:35;;;;;;;40.38;20.27;;;;;;;14.48;69.96;100468.25;7739278;32;40440;-75
2022/10/30 02:24:52;;;;;;;41.03;20.62;;;;;;;14.50;69.90;100457.81;7725700;32;37898;-74
2022/10/30 02:29:08;;;;;;;45.88;21.40;;;;;;;14.58;69.50;100464.66;7737670;32;37323;-74
2022/10/30 02:33:24;;;;;;;41.25;22.23;;;;;;;14.36;70.48;100459.53;7739167;32;39455;-75
2022/10/30 02:37:40;;;;;;;43.87;21.90;;;;;;;14.27;71.06;100473.81;7738795;32;40810;-75
2022/10/30 02:42:00;;;;;;;41.47;20.90;;;;;;;14.42;70.86;100466.66;7738990;32;38834;-74
2022/10/30 02:46:16;;;;;;;36.60;20.60;;;;;;;14.38;70.75;100465.56;7737647;32;36674;-74
2022/10/30 02:50:33;;;;;;;44.33;21.37;;;;;;;14.51;70.14;100467.69;7738807;32;39386;-75
2022/10/30 02:54:49;;;;;;;43.75;20.70;;;;;;;14.55;69.96;100463.28;7710175;32;41156;-73
2022/10/30 02:59:05;;;;;;;43.40;19.90;;;;;;;14.71;69.54;100463.22;7711942;32;37892;-74
2022/10/30 03:03:21;;;;;;;43.35;20.65;;;;;;;14.75;69.55;100464.31;7711993;32;37019;-74
2022/10/30 03:07:39;;;;;;;43.63;22.13;;;;;;;14.73;69.27;100461.00;7711907;32;40246;-74
2022/10/30 03:11:55;;;;;;;41.03;20.88;;;;;;;14.81;69.01;100468.66;7711798;32;40222;-74
2022/10/30 03:16:13;;;;;;;39.20;19.15;;;;;;;14.59;69.83;100466.31;7711684;32;38632;-74
2022/10/30 03:20:29;;;;;;;41.45;21.05;;;;;;;14.73;69.51;100477.47;7711828;32;36436;-74
2022/10/30 03:24:45;;;;;;;41.25;21.02;;;;;;;14.63;69.59;100468.22;7736931;32;39368;-74
2022/10/30 03:29:02;;;;;;;45.65;20.75;;;;;;;14.76;69.32;100469.53;7738349;32;40121;-74
2022/10/30 03:33:18;;;;;;;43.13;20.48;;;;;;;14.25;70.88;100451.34;7726645;32;38916;-74
2022/10/30 03:37:34;;;;;;;43.67;21.98;;;;;;;14.61;69.82;100462.19;7711430;32;38271;-74
2022/10/30 03:41:50;;;;;;;42.22;21.58;;;;;;;14.18;71.51;100461.78;7711497;32;40193;-75
2022/10/30 03:46:08;;;;;;;43.95;20.80;;;;;;;14.45;70.46;100452.34;7711530;32;38604;-74
2022/10/30 03:50:24;;;;;;;41.33;20.75;;;;;;;14.41;70.40;100449.34;7710433;32;38721;-74
2022/10/30 03:54:40;;;;;;;45.05;21.60;;;;;;;14.56;69.84;100442.97;7720455;32;38056;-74
2022/10/30 03:58:56;;;;;;;43.38;20.25;;;;;;;14.62;69.48;100439.12;7711334;32;39347;-74
2022/10/30 04:03:12;;;;;;;41.10;20.30;;;;;;;14.58;69.38;100434.47;7711255;32;39901;-74
2022/10/30 04:07:28;;;;;;;45.25;21.77;;;;;;;14.88;68.21;100427.97;7711087;32;36907;-74
2022/10/30 04:11:45;;;;;;;42.92;19.75;;;;;;;14.73;69.00;100433.56;7711041;32;37211;-74
2022/10/30 04:16:01;;;;;;;38.40;18.58;;;;;;;14.72;69.06;100437.44;7710980;32;40553;-74
2022/10/30 04:20:18;;;;;;;35.92;18.67;;;;;;;14.65;69.22;100437.75;7709753;32;39691;-74
2022/10/30 04:24:34;;;;;;;39.20;18.52;;;;;;;14.85;68.52;100439.56;7736735;32;38831;-74
2022/10/30 04:28:51;;;;;;;35.78;17.98;;;;;;;14.92;68.26;100442.81;7737625;32;37217;-74
2022/10/30 04:33:12;;;;;;;36.15;18.00;;;;;;;14.80;68.27;100439.59;7737375;32;39246;-74
2022/10/30 04:37:28;;;;;;;40.72;19.75;;;;;;;14.74;68.40;100444.28;7737593;32;40083;-75
2022/10/30 04:41:44;;;;;;;42.00;21.50;;;;;;;14.47;69.25;100436.44;7737089;32;38957;-74
2022/10/30 04:46:04;;;;;;;42.00;19.05;;;;;;;14.25;70.30;100439.56;7737553;32;38185;-73
2022/10/30 04:50:20;;;;;;;37.88;20.55;;;;;;;14.06;71.10;100447.59;7737268;32;40024;-73
2022/10/30 04:54:37;;;;;;;46.63;20.90;;;;;;;14.17;70.95;100448.38;7710345;32;39511;-75
2022/10/30 04:58:53;;;;;;;47.30;20.60;;;;;;;14.23;70.35;100448.06;7709989;32;38096;-74
2022/10/30 05:03:16;;;;;;;44.05;19.62;;;;;;;14.28;70.48;100448.06;7719303;32;37234;-74
2022/10/30 05:07:32;;;;;;;44.27;19.87;;;;;;;14.03;71.59;100453.63;7723443;32;39334;-75
2022/10/30 05:11:48;;;;;;;41.25;19.87;;;;;;;14.54;69.97;100452.59;7736791;32;39917;-74
2022/10/30 05:16:04;;;;;;;41.72;19.08;;;;;;;14.55;69.86;100459.72;7725255;32;38120;-74
2022/10/30 05:20:21;;;;;;;40.70;19.15;;;;;;;14.49;69.88;100456.19;7736431;32;37139;-74
2022/10/30 05:24:37;;;;;;;38.30;19.65;;;;;;;14.72;69.12;100467.63;7716634;32;39407;-75
2022/10/30 05:28:53;;;;;;;47.60;20.62;;;;;;;14.18;70.78;100461.78;7709448;32;39676;-74
2022/10/30 05:33:11;;;;;;;44.78;21.30;;;;;;;14.42;69.91;100467.47;7709376;32;38754;-74
2022/10/30 05:37:27;;;;;;;43.55;20.08;;;;;;;14.19;70.74;100463.41;7719679;32;37176;-74
2022/10/30 05:41:43;;;;;;;45.63;20.35;;;;;;;14.33;70.43;100457.34;7722249;32;40121;-75
2022/10/30 05:45:59;;;;;;;41.83;19.17;;;;;;;14.59;69.40;100450.69;7735917;32;40646;-74
2022/10/30 05:50:15;;;;;;;43.00;20.05;;;;;;;14.86;68.29;100449.41;7735701;32;38710;-75
2022/10/30 05:54:31;;;;;;;36.33;18.35;;;;;;;14.53;69.51;100446.28;7735475;32;37191;-72
2022/10/30 05:58:49;;;;;;;33.95;16.10;;;;;;;14.78;68.77;100459.09;7735467;32;40041;-76
2022/10/30 06:03:08;;;;;;;29.75;15.80;;;;;;;14.96;68.79;100448.53;7735207;32;39935;-74
2022/10/30 06:07:24;;;;;;;35.67;16.58;;;;;;;14.82;69.21;100462.06;7735375;32;39018;-82
2022/10/30 06:11:40;;;;;;;32.90;15.35;;;;;;;15.10;67.92;100462.44;7726160;32;37162;-82
2022/10/30 06:15:56;;;;;;;33.22;17.08;;;;;;;15.09;67.52;100464.37;7713407;32;40109;-74
2022/10/30 06:20:13;;;;;;;33.00;16.08;;;;;;;15.13;68.05;100461.88;7737076;32;40752;-77
2022/10/30 06:24:29;;;;;;;36.35;17.83;;;;;;;14.80;68.19;100467.03;7739065;32;38121;-77
2022/10/30 06:28:46;;;;;;;29.40;15.70;;;;;;;14.94;67.46;100476.28;7712310;32;38235;-77
2022/10/30 06:33:04;;;;;;;32.33;17.92;;;;;;;14.92;67.80;100469.41;7729277;32;39398;-78
2022/10/30 06:37:20;;;;;;;39.67;17.83;;;;;;;14.92;67.60;100473.00;7738937;32;40836;-78
2022/10/30 06:41:36;;;;;;;33.10;16.15;;;;;;;15.14;66.68;100472.59;7738782;32;38268;-78
2022/10/30 06:45:52;;;;;;;25.00;14.27;;;;;;;14.78;67.72;100472.81;7738610;32;37957;-78
2022/10/30 06:50:12;;;;;;;34.42;16.37;;;;;;;14.78;67.94;100477.47;7738677;32;40120;-80
2022/10/30 06:54:28;;;;;;;30.62;15.02;;;;;;;14.90;67.47;100485.34;7729308;32;40862;-78
2022/10/30 06:58:44;;;;;;;29.40;14.68;;;;;;;14.94;67.35;100487.25;7722404;32;38861;-79
2022/10/30 07:03:03;;;;;;;33.05;14.98;;;;;;;14.81;67.65;100501.59;7712110;32;38000;-78
2022/10/30 07:07:19;;;;;;;34.65;16.40;;;;;;;14.91;67.50;100495.25;7706935;32;39966;-79
2022/10/30 07:11:35;;;;;;;33.83;16.62;;;;;;;15.00;67.22;100499.88;7734395;32;40842;-80
2022/10/30 07:15:51;;;;;;;36.22;16.27;;;;;;;15.02;67.05;100500.38;7728403;32;37708;-78
2022/10/30 07:20:08;;;;;;;27.95;15.15;;;;;;;14.95;67.11;100490.81;7717403;32;37764;-81
2022/10/30 07:24:24;;;;;;;35.50;16.85;;;;;;;15.03;66.49;100498.47;7710465;32;40076;-78
2022/10/30 07:28:40;;;;;;;30.17;15.35;;;;;;;14.70;67.36;100491.78;7711593;32;40184;-80
2022/10/30 07:33:01;;;;;;;33.50;15.73;;;;;;;14.94;66.94;100495.50;7712495;32;38526;-79
2022/10/30 07:37:18;;;;;;;36.47;15.93;;;;;;;15.01;66.92;100500.66;7712887;32;37987;-82
2022/10/30 07:41:34;;;;;;;33.70;15.68;;;;;;;15.06;66.62;100491.59;7711521;32;40053;-81
2022/10/30 07:45:50;;;;;;;30.37;15.00;;;;;;;14.64;67.76;100497.31;7711402;32;40069;-81
2022/10/30 07:50:07;;;;;;;29.90;14.35;;;;;;;14.71;67.13;100504.41;7711244;32;38766;-79
2022/10/30 07:54:23;;;;;;;33.85;16.12;;;;;;;14.84;66.77;100509.28;7728000;32;37295;-79
2022/10/30 07:58:39;;;;;;;33.45;15.85;;;;;;;14.56;68.06;100497.84;7738157;32;39033;-81
2022/10/30 08:03:00;;;;;;;31.50;16.00;;;;;;;14.34;68.67;100502.88;7736382;32;40807;-78
2022/10/30 08:07:18;;;;;;;32.65;15.73;;;;;;;14.70;67.71;100500.84;7734293;32;37933;-79
2022/10/30 08:11:34;;;;;;;35.50;16.30;;;;;;;14.95;66.62;100494.41;7736941;32;37258;-76
2022/10/30 08:15:50;;;;;;;36.97;16.23;;;;;;;14.75;67.40;100498.06;7721642;32;39104;-76
2022/10/30 08:20:07;;;;;;;35.85;16.05;;;;;;;14.78;67.41;100502.16;7737652;32;39870;-77
2022/10/30 08:24:23;;;;;;;31.50;16.35;;;;;;;14.70;67.62;100500.84;7723611;32;37813;-77
2022/10/30 08:28:39;;;;;;;32.22;15.27;;;;;;;14.53;68.13;100494.84;7720121;32;37963;-78
2022/10/30 08:33:00;;;;;;;30.52;15.27;;;;;;;14.20;69.02;100503.47;7719298;32;40124;-79
2022/10/30 08:37:16;;;;;;;32.72;15.38;;;;;;;14.40;68.53;100501.75;7710080;32;40851;-79
2022/10/30 08:41:33;;;;;;;32.75;16.05;;;;;;;14.77;67.57;100495.03;7710572;32;38828;-78
2022/10/30 08:45:49;;;;;;;32.15;15.65;;;;;;;14.63;68.03;100500.34;7710555;32;37888;-80
2022/10/30 08:50:05;;;;;;;32.78;16.27;;;;;;;14.49;68.48;100508.31;7710334;32;40162;-80
2022/10/30 08:54:21;;;;;;;35.00;16.40;;;;;;;14.37;69.04;100508.63;7710204;32;39942;-80
2022/10/30 08:58:37;;;;;;;32.08;16.52;;;;;;;14.07;70.39;100512.25;7710123;32;37980;-79
2022/10/30 09:02:54;;;;;;;32.95;15.63;;;;;;;14.08;70.35;100522.16;7729026;32;37954;-80
2022/10/30 09:07:10;;;;;;;31.95;15.70;;;;;;;14.38;69.48;100514.94;7736491;32;40138;-80
2022/10/30 09:11:28;;;;;;;29.73;14.73;;;;;;;14.37;69.10;100514.13;7735773;32;39741;-80
2022/10/30 09:15:44;;;;;;;30.62;15.70;;;;;;;14.65;68.25;100507.16;7736171;32;38903;-79
2022/10/30 09:20:00;;;;;;;30.37;15.55;;;;;;;14.35;69.51;100510.84;7736330;32;37472;-79
2022/10/30 09:24:16;;;;;;;29.35;15.07;;;;;;;14.83;67.86;100499.38;7736376;32;39357;-80
2022/10/30 09:28:32;;;;;;;31.30;14.48;;;;;;;15.16;67.13;100503.31;7713970;32;186968;-78
2022/10/30 09:32:56;;;;;;;26.90;14.65;;;;;;;15.37;66.88;100497.69;7735833;32;38247;-78
2022/10/30 09:37:14;;;;;;;30.52;13.80;;;;;;;15.39;66.03;100501.78;7733020;32;36704;-79
2022/10/30 09:41:50;;;;;;;24.67;13.73;;;;;;;15.53;65.46;100501.13;7736084;32;40039;-79
2022/10/30 09:46:27;;;;;;;27.27;13.43;;;;;;;15.01;67.02;100500.66;7736222;32;40928;-79
2022/10/30 09:50:56;;;;;;;29.73;13.32;;;;;;;15.45;65.27;100488.81;7717326;32;38040;-79
2022/10/30 09:55:39;;;;;;;21.95;12.77;;;;;;;15.67;64.96;100485.59;7712655;32;37168;-79
2022/10/30 10:00:10;;;;;;;25.62;13.02;;;;;;;15.12;66.43;100484.94;7719811;32;39114;-80
2022/10/30 10:04:30;;;;;;;25.98;13.50;;;;;;;15.49;65.28;100486.31;7739440;32;39683;-77
2022/10/30 10:09:13;;;;;;;23.27;12.98;;;;;;;15.51;65.62;100492.34;7725924;32;38108;-78
2022/10/30 10:13:40;;;;;;;24.60;12.20;;;;;;;15.99;64.19;100497.13;7728254;32;37768;-79
2022/10/30 10:18:00;;;;;;;24.45;12.75;;;;;;;15.63;65.07;100490.03;7719997;32;40086;-77
2022/10/30 10:22:35;;;;;;;26.83;13.38;;;;;;;15.95;63.93;100480.41;7735063;32;40745;-78
2022/10/30 10:27:11;;;;;;;24.80;13.00;;;;;;;15.45;65.29;100482.50;7737318;32;38189;-79
2022/10/30 10:31:39;;;;;;;28.42;13.50;;;;;;;15.68;64.37;100480.94;7737746;32;37059;-80
2022/10/30 10:36:37;;;;;;;30.25;13.55;;;;;;;15.83;64.38;100479.97;7738456;32;39272;-79
2022/10/30 10:41:17;;;;;;;28.67;14.15;;;;;;;15.72;64.75;100468.25;7681847;32;39794;-80
2022/10/30 10:46:03;;;;;;;27.73;13.57;;;;;;;15.81;65.12;100465.72;7734457;32;38839;-80
2022/10/30 10:50:22;;;;;;;26.60;13.88;;;;;;;16.15;63.70;100463.69;7709737;32;38223;-80
2022/10/30 10:54:43;;;;;;;29.73;13.80;;;;;;;15.70;64.95;100463.03;7728882;32;39450;-79
2022/10/30 10:59:07;;;;;;;26.37;14.38;;;;;;;15.66;64.96;100461.16;7716722;32;40389;-81
2022/10/30 11:03:35;;;;;;;27.27;13.68;;;;;;;15.81;64.93;100451.97;7713859;32;38776;-80
2022/10/30 11:07:52;;;;;;;25.98;13.82;;;;;;;15.75;65.22;100443.78;7731477;32;37818;-80
2022/10/30 11:12:09;;;;;;;25.77;13.98;;;;;;;15.76;64.83;100442.69;7709177;32;40047;-78
2022/10/30 11:16:33;;;;;;;28.92;14.38;;;;;;;15.95;64.30;100448.25;7710113;32;40927;-80
2022/10/30 11:21:09;;;;;;;23.90;13.32;;;;;;;15.73;64.62;100450.66;7721496;32;38802;-79
2022/10/30 11:25:32;;;;;;;27.17;13.35;;;;;;;15.93;64.49;100452.38;7725076;32;36980;-79
2022/10/30 11:29:55;;;;;;;24.73;13.30;;;;;;;15.94;64.31;100443.84;7724652;32;39374;-80
2022/10/30 11:34:17;;;;;;;28.23;13.57;;;;;;;16.33;63.15;100431.00;7723244;32;39980;-79
2022/10/30 11:38:33;;;;;;;25.85;14.15;;;;;;;16.52;62.65;100422.78;7737150;32;38924;-80
2022/10/30 11:42:57;;;;;;;30.10;15.05;;;;;;;15.84;63.94;100423.91;7737092;32;36877;-79
2022/10/30 11:47:17;;;;;;;26.58;14.45;;;;;;;15.74;64.49;100420.09;7724698;32;39441;-80
2022/10/30 11:51:38;;;;;;;26.70;14.50;;;;;;;16.13;64.00;100421.91;7724987;32;40125;-79
2022/10/30 11:55:55;;;;;;;29.00;15.18;;;;;;;16.27;63.11;100410.19;7682258;32;38031;-79
2022/10/30 12:00:16;;;;;;;29.60;14.68;;;;;;;15.82;64.50;100415.94;7684279;32;36814;-81
2022/10/30 12:04:32;;;;;;;38.08;19.52;;;;;;;16.12;63.56;100422.19;7690196;32;40080;-77
2022/10/30 12:09:01;;;;;;;31.27;15.07;;;;;;;16.37;63.25;100425.72;7709856;32;40554;-78
2022/10/30 12:13:20;;;;;;;31.45;17.90;;;;;;;15.90;64.89;100441.97;7704426;32;38112;-79
2022/10/30 12:17:38;;;;;;;30.33;14.80;;;;;;;16.06;64.40;100437.94;7682897;32;38219;-78
2022/10/30 12:21:56;;;;;;;33.30;14.32;;;;;;;16.23;63.89;100426.47;7684583;32;40138;-80
2022/10/30 12:26:14;;;;;;;27.50;14.93;;;;;;;16.17;63.35;100421.31;7671300;32;40784;-79
2022/10/30 12:30:38;;;;;;;28.77;14.60;;;;;;;16.29;63.01;100418.97;7682505;32;38166;-78
2022/10/30 12:35:02;;;;;;;37.30;15.77;;;;;;;15.63;64.78;100418.59;7704872;32;37299;-79
2022/10/30 12:39:33;;;;;;;29.67;14.95;;;;;;;15.09;67.12;100430.59;7707739;32;40063;-78
2022/10/30 12:44:01;;;;;;;27.75;14.80;;;;;;;15.69;65.47;100422.09;7684757;32;40478;-79
2022/10/30 12:48:29;;;;;;;28.45;14.73;;;;;;;15.80;64.96;100422.81;7682133;32;37894;-79
2022/10/30 12:53:08;;;;;;;26.37;13.82;;;;;;;15.98;64.71;100432.28;7691315;32;37005;-79
2022/10/30 12:57:36;;;;;;;25.73;14.50;;;;;;;15.88;64.88;100424.94;7708379;32;39403;-79
2022/10/30 13:02:10;;;;;;;31.17;14.65;;;;;;;15.93;64.68;100427.63;7713588;32;39867;-80
2022/10/30 13:06:30;;;;;;;29.73;14.93;;;;;;;15.45;65.87;100427.53;7723837;32;38097;-80
2022/10/30 13:10:50;;;;;;;29.12;14.60;;;;;;;15.17;66.63;100433.53;7715680;32;37923;-79
2022/10/30 13:15:16;;;;;;;31.30;15.07;;;;;;;15.76;65.38;100420.69;7709391;32;39393;-81
2022/10/30 13:19:32;;;;;;;31.40;14.10;;;;;;;14.84;68.25;100424.19;7708944;32;39952;-79
2022/10/30 13:24:02;;;;;;;33.13;15.10;;;;;;;14.93;67.63;100421.66;7714209;32;37514;-79
2022/10/30 13:28:21;;;;;;;37.53;16.37;;;;;;;15.24;67.06;100424.16;7726567;32;37185;-80
2022/10/30 13:32:40;;;;;;;29.63;15.73;;;;;;;14.75;68.64;100420.41;7736984;32;39286;-80
2022/10/30 13:37:09;;;;;;;28.65;15.95;;;;;;;14.71;68.57;100424.81;7739027;32;40178;-80
2022/10/30 13:42:10;;;;;;;31.17;15.60;;;;;;;14.93;68.38;100418.91;7727457;32;38816;-79
2022/10/30 13:46:53;;;;;;;31.98;15.13;;;;;;;15.34;67.04;100419.41;7704313;32;37336;-81
2022/10/30 13:51:30;;;;;;;33.55;15.90;;;;;;;15.29;66.97;100433.16;7739237;32;40013;-79
2022/10/30 13:55:47;;;;;;;32.47;15.80;;;;;;;15.30;66.85;100437.56;7737196;32;39909;-79
2022/10/30 14:00:06;;;;;;;29.48;16.02;;;;;;;15.37;66.52;100438.06;7722817;32;38010;-80
2022/10/30 14:04:50;;;;;;;33.58;16.58;;;;;;;14.47;69.28;100436.44;7698766;32;37546;-80
2022/10/30 14:09:25;;;;;;;31.08;16.33;;;;;;;15.00;67.90;100430.37;7712142;32;39313;-79
2022/10/30 14:14:20;;;;;;;35.30;15.63;;;;;;;14.74;68.90;100421.50;7712755;32;40945;-79
2022/10/30 14:19:03;;;;;;;28.35;14.60;;;;;;;14.65;69.30;100421.28;7711431;32;37913;-74
2022/10/30 14:23:21;;;;;;;37.25;17.40;;;;;;;15.00;68.25;100409.25;7725747;32;37148;-75
2022/10/30 14:27:38;;;;;;;33.50;15.70;;;;;;;14.82;70.10;100409.94;7739198;32;41042;-80
2022/10/30 14:31:54;;;;;;;27.70;14.52;;;;;;;14.47;70.14;100409.03;7725109;32;39958;-79
2022/10/30 14:36:32;;;;;;;28.30;14.65;;;;;;;15.10;67.65;100402.84;7711185;32;38047;-76
2022/10/30 14:41:26;;;;;;;29.00;14.65;;;;;;;15.02;68.16;100398.81;7699217;32;37930;-78
2022/10/30 14:45:53;;;;;;;26.73;14.50;;;;;;;15.08;67.44;100391.34;7709354;32;39453;-77
2022/10/30 14:50:20;;;;;;;33.75;15.35;;;;;;;15.15;66.99;100385.50;7699368;32;39715;-77
2022/10/30 14:54:57;;;;;;;26.58;14.55;;;;;;;15.31;66.61;100395.25;7717823;32;38091;-76
2022/10/30 14:59:15;;;;;;;34.38;15.82;;;;;;;15.55;65.89;100394.47;7700265;32;37977;-77
2022/10/30 15:04:13;;;;;;;29.58;14.68;;;;;;;15.63;65.25;100399.34;7735908;32;38924;-78
2022/10/30 15:08:37;;;;;;;30.95;16.23;;;;;;;15.54;65.44;100398.34;7737773;32;39855;-78
2022/10/30 15:13:20;;;;;;;34.47;15.18;;;;;;;15.49;65.69;100398.41;7738071;32;37794;-77
2022/10/30 15:17:40;;;;;;;30.35;14.63;;;;;;;15.41;65.66;100394.34;7693526;32;37344;-77
2022/10/30 15:21:57;;;;;;;33.13;16.35;;;;;;;14.80;68.06;100399.22;7735972;32;39281;-77
2022/10/30 15:26:22;;;;;;;31.08;17.45;;;;;;;14.43;69.05;100408.75;7724443;32;38118;-78
2022/10/30 15:30:56;;;;;;;29.25;15.15;;;;;;;15.19;66.75;100401.12;7723659;32;39231;-78
2022/10/30 15:35:25;;;;;;;30.88;15.73;;;;;;;15.10;67.00;100396.53;7726516;32;36416;-78
2022/10/30 15:39:42;;;;;;;26.67;14.50;;;;;;;15.22;66.45;100391.50;7709757;32;40107;-79
2022/10/30 15:43:59;;;;;;;28.58;14.95;;;;;;;15.53;65.38;100397.50;7709834;32;40489;-77
2022/10/30 15:48:26;;;;;;;37.45;17.02;;;;;;;15.23;66.52;100395.88;7719941;32;38154;-79
2022/10/30 15:52:47;;;;;;;32.17;16.50;;;;;;;15.15;66.77;100391.81;7708776;32;38003;-80
2022/10/30 15:57:04;;;;;;;32.63;17.55;;;;;;;15.44;65.78;100395.69;7710945;32;40060;-80
2022/10/30 16:01:44;;;;;;;35.63;17.80;;;;;;;15.36;65.81;100395.19;7710794;32;40309;-81
2022/10/30 16:06:15;;;;;;;34.97;16.90;;;;;;;14.84;67.64;100399.47;7710947;32;38841;-80
2022/10/30 16:10:45;;;;;;;36.60;18.23;;;;;;;15.46;65.65;100396.22;7708543;32;37969;-81
2022/10/30 16:15:26;;;;;;;32.45;16.70;;;;;;;15.22;66.29;100399.72;7710935;32;39903;-80
2022/10/30 16:19:50;;;;;;;33.30;15.63;;;;;;;15.00;66.91;100400.19;7726388;32;40703;-81
2022/10/30 16:24:08;;;;;;;30.42;14.95;;;;;;;14.89;67.64;100401.38;7737538;32;38782;-80
2022/10/30 16:28:38;;;;;;;31.80;14.70;;;;;;;14.87;67.36;100401.66;7715499;32;37099;-79
2022/10/30 16:32:55;;;;;;;29.12;14.55;;;;;;;15.06;66.71;100395.47;7709264;32;39168;-78
2022/10/30 16:37:19;;;;;;;28.87;15.50;;;;;;;15.09;66.33;100400.38;7709136;32;39608;-79
2022/10/30 16:41:36;;;;;;;30.23;14.40;;;;;;;14.61;67.92;100396.34;7710224;32;38046;-79
2022/10/30 16:45:53;;;;;;;29.83;15.65;;;;;;;14.95;66.86;100408.44;7721389;32;37731;-79
2022/10/30 16:50:14;;;;;;;29.33;15.82;;;;;;;14.54;68.52;100406.78;7710556;32;39424;-79
2022/10/30 16:54:40;;;;;;;29.67;15.25;;;;;;;14.71;67.84;100402.84;7708878;32;40770;-80
2022/10/30 16:59:34;;;;;;;29.95;16.08;;;;;;;14.51;68.90;100407.34;7720984;32;38726;-79
2022/10/30 17:03:50;;;;;;;33.78;17.42;;;;;;;14.86;67.41;100421.16;7735542;32;37136;-78
2022/10/30 17:08:32;;;;;;;28.70;15.95;;;;;;;14.34;69.31;100410.44;7722913;32;40168;-77
2022/10/30 17:12:48;;;;;;;32.50;16.60;;;;;;;14.53;68.55;100418.84;7723291;32;40867;-79
2022/10/30 17:17:22;;;;;;;39.33;19.52;;;;;;;14.45;69.20;100422.19;7735669;32;37977;-80
2022/10/30 17:21:41;;;;;;;39.47;17.77;;;;;;;14.20;70.01;100429.44;7700095;32;37191;-80
2022/10/30 17:25:57;;;;;;;37.35;18.30;;;;;;;13.92;70.80;100422.69;7704431;32;40142;-80
2022/10/30 17:30:33;;;;;;;32.95;18.05;;;;;;;14.45;69.29;100427.66;7735410;32;40251;-81
2022/10/30 17:35:15;;;;;;;37.70;18.23;;;;;;;14.46;69.64;100429.31;7722035;32;38203;-78
2022/10/30 17:39:31;;;;;;;35.45;19.08;;;;;;;14.44;69.53;100426.03;7702255;32;37202;-75
2022/10/30 17:43:53;;;;;;;34.95;17.92;;;;;;;14.61;68.70;100421.03;7708602;32;40137;-72
2022/10/30 17:48:14;;;;;;;31.05;18.23;;;;;;;14.41;69.36;100421.91;7708703;32;39665;-79
2022/10/30 17:52:31;;;;;;;30.35;17.27;;;;;;;14.92;67.60;100425.50;7711853;32;37067;-79
2022/10/30 17:56:49;;;;;;;33.45;19.20;;;;;;;14.49;68.91;100431.50;7735708;32;38516;-81
2022/10/30 18:01:06;;;;;;;33.78;16.65;;;;;;;14.47;69.19;100425.47;7721118;32;38685;-80
2022/10/30 18:05:24;;;;;;;30.02;17.42;;;;;;;14.62;68.34;100422.66;7721546;32;40580;-80
2022/10/30 18:09:41;;;;;;;30.90;16.52;;;;;;;14.73;68.24;100406.13;7724416;32;38374;-79
2022/10/30 18:13:58;;;;;;;31.75;16.87;;;;;;;14.87;67.44;100423.63;7737810;32;37551;-79
2022/10/30 18:18:21;;;;;;;32.25;16.05;;;;;;;14.68;67.86;100425.38;7722510;32;39795;-79
2022/10/30 18:22:38;;;;;;;32.05;16.90;;;;;;;14.95;66.94;100423.03;7711995;32;40945;-79
2022/10/30 18:26:54;;;;;;;38.92;17.48;;;;;;;14.97;66.89;100431.78;7711830;32;38166;-78
2022/10/30 18:31:15;;;;;;;33.25;18.40;;;;;;;14.81;67.61;100425.59;7736329;32;37955;-79
2022/10/30 18:35:36;;;;;;;34.72;18.25;;;;;;;14.31;69.60;100415.66;7738445;32;40230;-79
2022/10/30 18:39:52;;;;;;;37.45;18.37;;;;;;;14.26;69.85;100416.50;7738511;32;40848;-79
2022/10/30 18:44:13;;;;;;;32.00;17.37;;;;;;;14.13;70.13;100426.16;7738518;32;36660;-77
2022/10/30 18:48:29;;;;;;;40.35;17.85;;;;;;;14.54;69.04;100423.25;7738184;32;36893;-79
2022/10/30 18:52:45;;;;;;;32.05;17.33;;;;;;;14.58;68.48;100427.09;7738085;32;39059;-79
2022/10/30 18:57:02;;;;;;;36.75;17.90;;;;;;;14.68;68.07;100439.09;7738382;32;39892;-78
2022/10/30 19:01:19;;;;;;;35.83;19.60;;;;;;;14.59;68.19;100426.00;7712626;32;38089;-80
2022/10/30 19:05:48;;;;;;;38.97;19.27;;;;;;;14.42;68.44;100417.28;7711295;32;37074;-79
2022/10/30 19:10:05;;;;;;;32.00;18.75;;;;;;;14.50;68.20;100419.41;7711730;32;39365;-79
2022/10/30 19:14:21;;;;;;;39.13;19.45;;;;;;;14.53;68.50;100424.34;7711546;32;39648;-79
2022/10/30 19:18:38;;;;;;;38.15;20.10;;;;;;;14.74;67.58;100425.06;7728953;32;38071;-78
2022/10/30 19:22:54;;;;;;;35.67;19.35;;;;;;;14.19;69.61;100422.28;7738097;32;38038;-79
2022/10/30 19:27:12;;;;;;;32.63;17.95;;;;;;;14.45;68.84;100424.91;7738016;32;39447;-79
2022/10/30 19:31:39;;;;;;;38.28;18.58;;;;;;;14.61;68.24;100421.03;7711117;32;39308;-78
2022/10/30 19:35:59;;;;;;;36.65;18.42;;;;;;;14.74;67.12;100424.25;7714699;32;38637;-77
2022/10/30 19:40:36;;;;;;;32.90;17.85;;;;;;;14.36;68.67;100434.84;7728753;32;37430;-77
2022/10/30 19:44:53;;;;;;;38.10;19.27;;;;;;;14.80;67.54;100434.09;7737904;32;39284;-78
2022/10/30 19:49:17;;;;;;;36.03;18.85;;;;;;;14.48;68.42;100438.06;7737722;32;40032;-75